Time;durP1;ratioP1;P1;durP2;ratioP2;P2;SDS_P1;SDS_P2;PMS_P1;PMS_P2;Temp;Humidity;BMP_temperature;BMP_pressure;BME280_temperature;BME280_humidity;BME280_pressure;Samples;Min_cycle;Max_cycle;Signal;HPM_P1;HPM_P2
2023/06/06 00:02:04;;;;;;;6.25;3.95;;;;;;;23.95;52.29;100231.34;5095344;28;20058;-62
2023/06/06 00:04:32;;;;;;;6.32;4.43;;;;;;;23.95;52.20;100239.53;5095325;28;20040;-62
2023/06/06 00:07:03;;;;;;;6.22;3.78;;;;;;;23.96;52.64;100238.50;5095153;28;20051;-64
2023/06/06 00:09:33;;;;;;;6.10;3.97;;;;;;;23.96;52.41;100237.66;5094895;28;20059;-63
2023/06/06 00:12:04;;;;;;;6.85;4.15;;;;;;;23.95;52.38;100236.81;5095304;28;20097;-63
2023/06/06 00:14:33;;;;;;;5.90;3.95;;;;;;;23.94;52.56;100243.28;5094966;28;20055;-64
2023/06/06 00:17:01;;;;;;;6.78;4.40;;;;;;;23.94;52.60;100246.00;5095251;28;20047;-63
2023/06/06 00:19:29;;;;;;;7.70;4.10;;;;;;;23.94;52.49;100237.00;5094905;28;20130;-63
2023/06/06 00:21:57;;;;;;;6.80;4.10;;;;;;;23.94;52.47;100240.56;5094866;28;20040;-64
2023/06/06 00:24:26;;;;;;;7.18;4.60;;;;;;;23.93;52.61;100238.88;5095201;28;20135;-63
2023/06/06 00:26:55;;;;;;;6.78;3.85;;;;;;;23.94;52.88;100234.25;5095147;28;20063;-63
2023/06/06 00:29:23;;;;;;;7.75;4.18;;;;;;;23.93;52.77;100227.09;5094949;28;20086;-63
2023/06/06 00:31:51;;;;;;;8.38;4.50;;;;;;;23.93;52.83;100246.16;5094722;28;20051;-63
2023/06/06 00:34:20;;;;;;;7.18;4.22;;;;;;;23.91;52.89;100270.84;5094650;28;20095;-63
2023/06/06 00:36:48;;;;;;;9.05;5.10;;;;;;;23.82;54.61;100285.53;5094648;28;20055;-63
2023/06/06 00:39:16;;;;;;;6.50;4.25;;;;;;;23.80;54.67;100264.97;5094772;28;20048;-62
2023/06/06 00:41:46;;;;;;;7.20;4.05;;;;;;;23.80;54.43;100254.06;5094474;28;20044;-62
2023/06/06 00:44:16;;;;;;;6.22;3.80;;;;;;;23.81;54.30;100248.44;5094743;28;20070;-63
2023/06/06 00:46:45;;;;;;;6.68;4.03;;;;;;;23.82;54.13;100255.59;5094517;28;20048;-63
2023/06/06 00:49:15;;;;;;;7.00;4.10;;;;;;;23.83;53.92;100257.28;5094330;28;20510;-64
2023/06/06 00:51:46;;;;;;;6.38;3.92;;;;;;;23.84;53.78;100250.84;5094579;28;20138;-63
2023/06/06 00:54:16;;;;;;;5.53;3.90;;;;;;;23.84;53.52;100248.09;5094452;28;20044;-64
2023/06/06 00:56:46;;;;;;;6.80;4.10;;;;;;;23.84;53.16;100234.50;5094399;28;20044;-64
2023/06/06 00:59:16;;;;;;;8.35;4.28;;;;;;;23.85;53.22;100241.63;5094305;28;20169;-64
2023/06/06 01:01:47;;;;;;;6.97;4.43;;;;;;;23.85;53.53;100232.63;5094039;28;20131;-64
2023/06/06 01:04:17;;;;;;;6.78;3.90;;;;;;;23.86;53.33;100237.03;5094217;28;20050;-65
2023/06/06 01:06:46;;;;;;;6.90;4.00;;;;;;;23.85;53.28;100251.69;5094155;28;20473;-64
2023/06/06 01:09:16;;;;;;;6.72;4.15;;;;;;;23.85;53.63;100257.13;5093842;28;20052;-64
2023/06/06 01:11:55;;;;;;;7.22;3.97;;;;;;;23.82;53.87;100255.59;5094153;28;20044;-64
2023/06/06 01:14:31;;;;;;;7.28;4.00;;;;;;;23.81;53.96;100244.88;5093843;28;20044;-63
2023/06/06 01:17:03;;;;;;;5.85;3.70;;;;;;;23.80;54.01;100249.47;5093995;28;20047;-64
2023/06/06 01:19:33;;;;;;;6.13;3.90;;;;;;;23.80;53.98;100232.28;5093796;28;20079;-64
2023/06/06 01:22:07;;;;;;;5.85;3.70;;;;;;;23.79;53.98;100230.59;5093847;28;20044;-64
2023/06/06 01:24:36;;;;;;;6.88;4.10;;;;;;;23.79;53.82;100226.00;5093562;28;20044;-63
2023/06/06 01:27:05;;;;;;;6.72;3.72;;;;;;;23.80;53.73;100227.69;5093651;28;20059;-63
2023/06/06 01:29:33;;;;;;;5.97;3.50;;;;;;;23.80;53.58;100237.72;5092602;28;20059;-64
2023/06/06 01:32:10;;;;;;;5.40;3.83;;;;;;;23.80;53.42;100235.84;5093550;28;20063;-63
2023/06/06 01:34:44;;;;;;;6.40;3.67;;;;;;;23.79;53.92;100234.16;5093410;28;20139;-63
2023/06/06 01:37:20;;;;;;;6.40;3.85;;;;;;;23.76;54.55;100242.69;5093500;28;20059;-63
2023/06/06 01:39:50;;;;;;;6.40;3.78;;;;;;;23.73;54.69;100240.31;5093599;28;20395;-63
2023/06/06 01:42:21;;;;;;;6.28;4.13;;;;;;;23.70;54.88;100244.25;5093476;28;20048;-63
2023/06/06 01:44:53;;;;;;;6.97;4.50;;;;;;;23.70;54.87;100237.94;5093449;28;20102;-63
2023/06/06 01:47:22;;;;;;;6.28;3.75;;;;;;;23.69;54.75;100230.81;5093417;28;20048;-63
2023/06/06 01:49:51;;;;;;;6.40;4.00;;;;;;;23.68;54.87;100229.13;5093178;28;20044;-63
2023/06/06 01:52:21;;;;;;;6.22;4.10;;;;;;;23.70;54.75;100227.06;5093215;28;20560;-63
2023/06/06 01:54:49;;;;;;;7.25;3.95;;;;;;;23.69;54.69;100226.22;5093294;28;20090;-63
2023/06/06 01:57:17;;;;;;;5.55;3.63;;;;;;;23.70;54.78;100230.63;5093166;28;20048;-65
2023/06/06 01:59:45;;;;;;;5.32;3.85;;;;;;;23.70;54.59;100232.50;5093265;28;20040;-64
2023/06/06 02:02:14;;;;;;;6.47;3.63;;;;;;;23.72;54.39;100235.03;5092966;28;20123;-63
2023/06/06 02:04:42;;;;;;;6.03;3.78;;;;;;;23.70;54.26;100233.34;5093193;28;20066;-63
2023/06/06 02:07:11;;;;;;;6.68;3.97;;;;;;;23.72;54.24;100233.16;5093082;28;20044;-63
2023/06/06 02:09:42;;;;;;;7.20;3.80;;;;;;;23.70;54.36;100227.91;5092751;28;20056;-63
2023/06/06 02:12:11;;;;;;;6.32;3.70;;;;;;;23.70;54.59;100221.59;5092786;28;20123;-63
2023/06/06 02:14:39;;;;;;;6.50;3.75;;;;;;;23.71;54.44;100223.31;5092220;28;20056;-63
2023/06/06 02:17:07;;;;;;;6.15;3.70;;;;;;;23.70;54.58;100227.06;5092606;28;20555;-64
2023/06/06 02:19:35;;;;;;;7.60;4.07;;;;;;;23.69;54.68;100230.81;5093052;28;20089;-64
2023/06/06 02:22:04;;;;;;;6.20;3.70;;;;;;;23.69;54.68;100230.81;5092763;28;20044;-65
2023/06/06 02:24:33;;;;;;;6.70;3.70;;;;;;;23.69;54.65;100236.25;5092683;28;20098;-64
2023/06/06 02:27:03;;;;;;;6.53;3.72;;;;;;;23.68;54.86;100226.38;5092537;28;20127;-64
2023/06/06 02:29:32;;;;;;;5.22;3.42;;;;;;;23.67;54.91;100233.72;5092277;28;20117;-64
2023/06/06 02:32:00;;;;;;;6.97;3.92;;;;;;;23.66;54.87;100228.44;5092648;28;20048;-64
2023/06/06 02:34:28;;;;;;;6.03;3.75;;;;;;;23.66;55.04;100225.72;5092500;28;20101;-64
2023/06/06 02:36:59;;;;;;;6.00;4.10;;;;;;;23.66;54.88;100220.28;5092308;28;20564;-64
2023/06/06 02:39:28;;;;;;;6.45;3.83;;;;;;;23.65;55.13;100224.03;5092285;28;20500;-64
2023/06/06 02:41:56;;;;;;;6.10;3.70;;;;;;;23.65;54.97;100224.88;5092177;28;20075;-64
2023/06/06 02:44:27;;;;;;;5.80;3.83;;;;;;;23.64;54.91;100217.75;5092152;28;20052;-64
2023/06/06 02:46:55;;;;;;;6.40;3.92;;;;;;;23.64;54.70;100222.31;5092132;28;20496;-64
2023/06/06 02:49:23;;;;;;;7.22;3.95;;;;;;;23.63;54.68;100226.91;5092215;28;20040;-64
2023/06/06 02:51:51;;;;;;;6.88;3.70;;;;;;;23.63;54.87;100226.06;5092302;28;20044;-64
2023/06/06 02:54:20;;;;;;;6.82;3.80;;;;;;;23.63;54.51;100224.19;5092099;28;20052;-64
2023/06/06 02:56:48;;;;;;;5.45;3.50;;;;;;;23.63;54.61;100226.06;5092111;28;20058;-64
2023/06/06 02:59:16;;;;;;;6.40;3.47;;;;;;;23.62;54.49;100233.38;5092123;28;20048;-63
2023/06/06 03:01:48;;;;;;;5.60;3.50;;;;;;;23.62;54.57;100236.09;5092116;28;20048;-65
2023/06/06 03:04:17;;;;;;;5.63;3.65;;;;;;;23.61;54.85;100239.00;5091957;28;20055;-65
2023/06/06 03:06:48;;;;;;;6.10;3.42;;;;;;;23.59;54.96;100260.97;5091869;28;20047;-63
2023/06/06 03:09:16;;;;;;;6.47;3.90;;;;;;;23.53;55.88;100267.06;5091537;28;20048;-63
2023/06/06 03:11:44;;;;;;;7.38;4.00;;;;;;;23.47;56.44;100254.19;5091998;28;20048;-64
2023/06/06 03:14:12;;;;;;;6.90;3.70;;;;;;;23.46;56.44;100251.66;5091855;28;20063;-64
2023/06/06 03:16:41;;;;;;;6.45;3.65;;;;;;;23.46;56.49;100252.50;5092718;28;20051;-64
2023/06/06 03:19:12;;;;;;;5.22;3.75;;;;;;;23.46;56.37;100252.50;5091562;28;20499;-64
2023/06/06 03:21:41;;;;;;;6.57;3.50;;;;;;;23.47;56.31;100256.06;5091521;28;20052;-64
2023/06/06 03:24:09;;;;;;;6.68;3.42;;;;;;;23.47;55.84;100253.34;5080954;28;20044;-64
2023/06/06 03:26:39;;;;;;;6.20;3.75;;;;;;;23.48;55.80;100241.41;5070566;28;20127;-64
2023/06/06 03:29:07;;;;;;;6.22;3.30;;;;;;;23.48;55.71;100246.88;5071380;28;20050;-64
2023/06/06 03:31:36;;;;;;;5.00;3.10;;;;;;;23.49;55.61;100248.56;5077894;28;20044;-64
2023/06/06 03:34:04;;;;;;;6.18;3.42;;;;;;;23.48;55.61;100258.59;5091406;28;20516;-64
2023/06/06 03:36:34;;;;;;;5.38;3.55;;;;;;;23.49;55.94;100271.19;5091147;28;20052;-64
2023/06/06 03:39:02;;;;;;;5.28;3.53;;;;;;;23.49;55.84;100279.34;5091556;28;20055;-64
2023/06/06 03:41:31;;;;;;;5.63;3.83;;;;;;;23.49;55.80;100278.50;5091691;28;20052;-64
2023/06/06 03:44:01;;;;;;;5.47;3.50;;;;;;;23.47;55.73;100275.97;5091488;28;20051;-64
2023/06/06 03:46:29;;;;;;;6.53;3.78;;;;;;;23.47;55.97;100286.84;5091452;28;20078;-64
2023/06/06 03:48:57;;;;;;;5.40;3.63;;;;;;;23.45;55.99;100277.13;5089867;28;20456;-64
2023/06/06 03:51:26;;;;;;;6.60;3.60;;;;;;;23.43;55.91;100274.59;5070904;28;20136;-64
2023/06/06 03:53:55;;;;;;;5.13;3.30;;;;;;;23.43;55.67;100275.44;5071082;28;20048;-64
2023/06/06 03:56:24;;;;;;;5.57;3.53;;;;;;;23.43;55.40;100267.28;5071054;28;20416;-64
2023/06/06 03:58:53;;;;;;;5.35;3.40;;;;;;;23.44;55.39;100265.41;5071016;28;20416;-64
2023/06/06 04:01:21;;;;;;;5.88;4.00;;;;;;;23.43;55.58;100267.28;5070884;28;20562;-65
2023/06/06 04:03:49;;;;;;;6.30;3.72;;;;;;;23.44;55.81;100270.84;5071227;28;20106;-64
2023/06/06 04:06:20;;;;;;;6.32;3.63;;;;;;;23.43;55.75;100275.44;5071060;28;20048;-65
2023/06/06 04:08:48;;;;;;;5.75;3.42;;;;;;;23.45;55.74;100277.13;5070966;28;20044;-64
2023/06/06 04:11:17;;;;;;;6.63;3.70;;;;;;;23.43;55.95;100280.88;5070974;28;20390;-63
2023/06/06 04:13:46;;;;;;;6.75;3.70;;;;;;;23.43;55.96;100280.88;5070840;28;20547;-64
2023/06/06 04:16:14;;;;;;;5.55;3.35;;;;;;;23.42;56.08;100272.91;5070584;28;20051;-64
2023/06/06 04:18:42;;;;;;;6.03;3.63;;;;;;;23.42;56.15;100272.91;5070901;28;20048;-64
2023/06/06 04:21:10;;;;;;;6.32;3.97;;;;;;;23.41;56.10;100266.59;5070699;28;20045;-64
2023/06/06 04:23:38;;;;;;;6.82;3.72;;;;;;;23.41;56.07;100271.22;5070966;28;20052;-63
2023/06/06 04:26:10;;;;;;;6.32;3.85;;;;;;;23.41;56.29;100271.22;5070585;28;20049;-63
2023/06/06 04:28:40;;;;;;;12.20;4.18;;;;;;;23.40;56.34;100264.06;5070458;28;20062;-63
2023/06/06 04:31:08;;;;;;;7.28;3.78;;;;;;;23.39;56.23;100263.22;5070617;28;20489;-64
2023/06/06 04:33:37;;;;;;;6.05;4.05;;;;;;;23.39;56.28;100265.94;5070544;28;20494;-64
2023/06/06 04:36:06;;;;;;;6.60;3.58;;;;;;;23.38;56.36;100253.38;5070686;28;20051;-64
2023/06/06 04:38:37;;;;;;;6.32;3.90;;;;;;;23.38;56.15;100256.09;5073965;28;20056;-64
2023/06/06 04:41:05;;;;;;;6.18;4.03;;;;;;;23.37;56.27;100248.94;5074203;28;20052;-64
2023/06/06 04:43:55;;;;;;;6.82;3.88;;;;;;;23.37;56.57;100243.50;5074106;28;20080;-64
2023/06/06 04:46:23;;;;;;;5.53;3.63;;;;;;;23.37;56.29;100240.78;5074051;28;20048;-64
2023/06/06 04:48:55;;;;;;;6.38;3.72;;;;;;;23.37;56.32;100240.78;5085497;28;20044;-65
2023/06/06 04:51:29;;;;;;;6.18;3.50;;;;;;;23.36;56.55;100236.38;5094464;28;20109;-64
2023/06/06 04:53:58;;;;;;;5.07;3.30;;;;;;;23.35;56.72;100234.63;5094328;28;20131;-64
2023/06/06 04:56:28;;;;;;;6.40;3.55;;;;;;;23.36;56.66;100244.53;5094533;28;20051;-64
2023/06/06 04:59:05;;;;;;;7.03;3.95;;;;;;;23.36;56.74;100240.97;5094316;28;20475;-64
2023/06/06 05:01:36;;;;;;;7.03;4.20;;;;;;;23.35;56.84;100233.78;5094084;28;20495;-64
2023/06/06 05:04:05;;;;;;;6.35;3.67;;;;;;;23.34;56.84;100232.94;5093971;28;20481;-65
2023/06/06 05:06:34;;;;;;;5.55;3.65;;;;;;;23.35;56.87;100240.06;5094158;28;20040;-66
2023/06/06 05:09:04;;;;;;;6.10;3.83;;;;;;;23.35;57.10;100240.06;5093889;28;20091;-66
2023/06/06 05:11:33;;;;;;;6.28;4.00;;;;;;;23.35;56.95;100240.06;5094055;28;20143;-65
2023/06/06 05:14:02;;;;;;;5.20;3.40;;;;;;;23.34;57.03;100242.97;5093996;28;20048;-65
2023/06/06 05:16:30;;;;;;;6.15;3.70;;;;;;;23.34;57.22;100237.53;5093755;28;20068;-65
2023/06/06 05:18:59;;;;;;;6.43;3.60;;;;;;;23.34;57.16;100235.66;5093866;28;20469;-65
2023/06/06 05:21:27;;;;;;;5.78;3.60;;;;;;;23.34;57.16;100238.38;5093441;28;20050;-67
2023/06/06 05:23:58;;;;;;;5.93;3.65;;;;;;;23.34;57.46;100234.81;5093836;28;20071;-65
2023/06/06 05:26:27;;;;;;;5.82;3.60;;;;;;;23.32;57.51;100237.72;5093420;28;20043;-67
2023/06/06 05:28:55;;;;;;;6.50;3.70;;;;;;;23.32;57.63;100240.44;5093499;28;20048;-66
2023/06/06 05:31:25;;;;;;;7.47;3.97;;;;;;;23.33;57.53;100241.28;5093328;28;20043;-65
2023/06/06 05:33:53;;;;;;;7.70;5.07;;;;;;;23.33;57.55;100253.03;5093446;28;20162;-65
2023/06/06 05:36:22;;;;;;;9.30;4.70;;;;;;;23.33;57.38;100247.56;5093339;28;20048;-65
2023/06/06 05:38:50;;;;;;;8.90;5.13;;;;;;;23.35;57.57;100256.41;5093269;28;20063;-67
2023/06/06 05:41:20;;;;;;;9.70;5.38;;;;;;;23.35;57.95;100256.41;5093289;28;20044;-65
2023/06/06 05:43:48;;;;;;;9.18;5.32;;;;;;;23.36;57.96;100257.28;5092594;28;20138;-65
2023/06/06 05:46:17;;;;;;;8.30;4.90;;;;;;;23.35;58.03;100259.13;5093191;28;20044;-63
2023/06/06 05:48:47;;;;;;;10.18;5.03;;;;;;;23.36;58.48;100258.13;5092418;28;20056;-64
2023/06/06 05:51:15;;;;;;;10.95;5.05;;;;;;;23.37;58.38;100259.84;5093258;28;20051;-63
2023/06/06 05:53:45;;;;;;;6.95;4.57;;;;;;;23.37;58.26;100253.53;5093003;28;20048;-64
2023/06/06 05:56:13;;;;;;;10.32;5.05;;;;;;;23.39;58.16;100263.22;5093077;28;20109;-64
2023/06/06 05:58:42;;;;;;;11.25;5.47;;;;;;;23.41;58.09;100257.59;5092805;28;20047;-65
2023/06/06 06:01:12;;;;;;;22.48;7.63;;;;;;;23.42;58.05;100256.56;5092972;28;20048;-64
2023/06/06 06:03:41;;;;;;;26.23;8.93;;;;;;;23.41;58.48;100266.59;5093055;28;20040;-65
2023/06/06 06:06:11;;;;;;;19.25;7.80;;;;;;;23.42;58.37;100257.41;5092809;28;20059;-66
2023/06/06 06:08:39;;;;;;;21.20;7.85;;;;;;;23.42;58.78;100262.84;5092680;28;20086;-63
2023/06/06 06:11:07;;;;;;;21.98;8.38;;;;;;;23.42;59.07;100271.03;5092610;28;20054;-63
2023/06/06 06:13:37;;;;;;;17.33;7.35;;;;;;;23.42;59.23;100272.91;5092635;28;20048;-64
2023/06/06 06:16:05;;;;;;;18.35;7.78;;;;;;;23.42;59.38;100272.91;5091836;28;20078;-64
2023/06/06 06:18:33;;;;;;;15.13;6.28;;;;;;;23.42;59.58;100270.19;5090567;28;20680;-65
2023/06/06 06:21:02;;;;;;;16.77;6.80;;;;;;;23.41;59.73;100269.34;5090690;28;20050;-64
2023/06/06 06:23:31;;;;;;;16.35;6.78;;;;;;;23.42;59.80;100267.47;5090646;28;20447;-65
2023/06/06 06:25:59;;;;;;;14.07;7.18;;;;;;;23.41;59.99;100274.78;5090691;28;20097;-64
2023/06/06 06:28:27;;;;;;;14.57;6.82;;;;;;;23.43;60.09;100275.44;5090632;28;20093;-65
2023/06/06 06:30:55;;;;;;;14.25;6.82;;;;;;;23.41;60.08;100272.06;5091314;28;20142;-64
2023/06/06 06:33:24;;;;;;;15.27;6.82;;;;;;;23.42;60.19;100278.34;5092240;28;20056;-64
2023/06/06 06:35:53;;;;;;;17.60;7.10;;;;;;;23.41;60.17;100277.50;5092282;28;20125;-64
2023/06/06 06:38:21;;;;;;;14.40;7.32;;;;;;;23.42;60.16;100281.06;5092088;28;20052;-64
2023/06/06 06:40:50;;;;;;;14.13;6.43;;;;;;;23.42;60.13;100279.19;5092230;28;20059;-64
2023/06/06 06:43:18;;;;;;;15.02;7.18;;;;;;;23.42;60.27;100284.63;5092252;28;20048;-64
2023/06/06 06:45:46;;;;;;;15.95;6.68;;;;;;;23.42;60.31;100281.91;5091997;28;20051;-65
2023/06/06 06:48:14;;;;;;;15.05;6.88;;;;;;;23.43;60.44;100297.22;5092088;28;20309;-64
2023/06/06 06:50:43;;;;;;;15.20;7.03;;;;;;;23.42;60.30;100290.06;5091709;28;20137;-65
2023/06/06 06:53:13;;;;;;;14.90;6.88;;;;;;;23.43;60.28;100297.22;5091497;28;20044;-65
2023/06/06 06:55:44;;;;;;;15.30;7.05;;;;;;;23.43;60.64;100294.50;5091583;28;20134;-65
2023/06/06 06:58:22;;;;;;;15.60;7.00;;;;;;;23.43;60.44;100297.22;5091575;28;20087;-65
2023/06/06 07:00:50;;;;;;;12.75;6.50;;;;;;;23.44;60.49;100292.63;5091819;28;20101;-65
2023/06/06 07:03:18;;;;;;;12.95;6.63;;;;;;;23.43;60.53;100297.22;5091679;28;20127;-65
2023/06/06 07:05:47;;;;;;;15.10;6.72;;;;;;;23.43;60.70;100294.50;5091739;28;20082;-65
2023/06/06 07:08:15;;;;;;;15.05;7.03;;;;;;;23.43;60.55;100291.78;5091706;28;20056;-65
2023/06/06 07:10:43;;;;;;;13.30;6.90;;;;;;;23.42;60.69;100290.06;5091839;28;20075;-65
2023/06/06 07:13:15;;;;;;;11.73;6.60;;;;;;;23.45;60.77;100296.19;5091825;28;20040;-65
2023/06/06 07:15:43;;;;;;;12.75;7.05;;;;;;;23.43;60.63;100297.22;5091646;28;20091;-65
2023/06/06 07:18:13;;;;;;;15.90;7.57;;;;;;;23.45;60.79;100288.03;5091306;28;20052;-65
2023/06/06 07:20:41;;;;;;;14.10;7.30;;;;;;;23.43;60.72;100297.22;5091558;28;20051;-65
2023/06/06 07:23:09;;;;;;;13.40;6.82;;;;;;;23.45;60.55;100290.75;5091852;28;20109;-65
2023/06/06 07:25:37;;;;;;;12.63;7.40;;;;;;;23.45;60.51;100288.03;5091957;28;20098;-65
2023/06/06 07:28:05;;;;;;;16.63;7.32;;;;;;;23.45;60.76;100293.47;5091714;28;20078;-65
2023/06/06 07:30:35;;;;;;;12.02;7.05;;;;;;;23.43;60.94;100294.50;5091734;28;20411;-65
2023/06/06 07:33:03;;;;;;;13.77;7.13;;;;;;;23.44;61.12;100289.91;5091726;28;20040;-65
2023/06/06 07:35:32;;;;;;;11.50;6.95;;;;;;;23.44;61.26;100289.91;5091572;28;20139;-65
2023/06/06 07:38:02;;;;;;;10.38;7.00;;;;;;;23.43;60.84;100290.94;5091200;28;20051;-65
2023/06/06 07:40:30;;;;;;;9.50;6.25;;;;;;;23.44;60.85;100295.34;5091288;28;20048;-65
2023/06/06 07:42:59;;;;;;;13.25;6.63;;;;;;;23.42;60.90;100292.81;5091046;28;20055;-65
2023/06/06 07:45:28;;;;;;;11.43;6.57;;;;;;;23.43;60.97;100291.78;5091413;28;20048;-65
2023/06/06 07:47:58;;;;;;;10.52;6.78;;;;;;;23.42;61.07;100292.81;5091236;28;20048;-65
2023/06/06 07:50:27;;;;;;;12.57;7.38;;;;;;;23.43;61.20;100291.78;5091040;28;20101;-64
2023/06/06 07:52:55;;;;;;;13.10;6.93;;;;;;;23.43;61.31;100290.94;5091075;28;20048;-64
2023/06/06 07:55:24;;;;;;;12.48;7.18;;;;;;;23.42;61.34;100287.34;5123655;27;20482;-65
2023/06/06 07:57:53;;;;;;;10.57;6.93;;;;;;;23.42;61.64;100292.81;5090858;28;20269;-64
2023/06/06 08:00:23;;;;;;;11.32;6.32;;;;;;;23.42;61.56;100273.75;5091096;28;20119;-65
2023/06/06 08:02:51;;;;;;;12.85;6.60;;;;;;;23.41;61.56;100277.50;5091115;28;20071;-64
2023/06/06 08:05:21;;;;;;;12.68;7.22;;;;;;;23.42;61.55;100287.34;5090932;28;20044;-64
2023/06/06 08:07:49;;;;;;;13.43;7.38;;;;;;;23.41;61.63;100288.38;5090798;28;20142;-64
2023/06/06 08:10:17;;;;;;;13.70;8.02;;;;;;;23.41;61.78;100282.94;5090740;28;20048;-64
2023/06/06 08:12:46;;;;;;;12.40;7.90;;;;;;;23.41;61.77;100282.94;5093393;28;20184;-64
2023/06/06 08:15:14;;;;;;;11.32;7.22;;;;;;;23.41;61.87;100280.22;5095089;28;20048;-63
2023/06/06 08:17:44;;;;;;;12.73;8.23;;;;;;;23.40;62.00;100275.81;5095011;28;20047;-63
2023/06/06 08:20:13;;;;;;;12.63;7.50;;;;;;;23.40;62.07;100270.34;5094898;28;20063;-63
2023/06/06 08:22:50;;;;;;;11.10;7.43;;;;;;;23.39;62.02;100279.56;5094774;28;20087;-64
2023/06/06 08:25:18;;;;;;;11.68;7.60;;;;;;;23.37;62.22;100276.16;5094647;28;20044;-64
2023/06/06 08:27:46;;;;;;;12.63;7.97;;;;;;;23.34;63.16;100281.94;5094854;28;20135;-64
2023/06/06 08:30:15;;;;;;;12.88;8.15;;;;;;;23.32;63.59;100283.13;5094944;28;20134;-63
2023/06/06 08:32:43;;;;;;;12.35;7.28;;;;;;;23.32;63.59;100288.56;5094551;28;20443;-63
2023/06/06 08:35:12;;;;;;;12.20;7.70;;;;;;;23.31;63.63;100279.56;5094621;28;20052;-64
2023/06/06 08:37:40;;;;;;;12.60;7.65;;;;;;;23.32;63.67;100274.97;5094348;28;20508;-63
2023/06/06 08:40:11;;;;;;;10.23;6.72;;;;;;;23.33;63.58;100280.25;5094712;28;20048;-63
2023/06/06 08:42:44;;;;;;;9.98;6.70;;;;;;;23.34;63.50;100273.75;5094697;28;20047;-65
2023/06/06 08:45:12;;;;;;;13.00;7.18;;;;;;;23.36;63.35;100273.63;5094404;28;20066;-65
2023/06/06 08:47:43;;;;;;;10.85;6.70;;;;;;;23.36;63.32;100269.03;5094341;28;20048;-65
2023/06/06 08:50:12;;;;;;;14.88;7.30;;;;;;;23.38;63.22;100272.41;5094296;28;20073;-65
2023/06/06 08:52:41;;;;;;;12.90;7.43;;;;;;;23.39;62.72;100268.66;5094540;28;20455;-64
2023/06/06 08:55:11;;;;;;;12.73;7.25;;;;;;;23.40;62.80;100274.97;5094374;28;20048;-64
2023/06/06 08:57:43;;;;;;;11.25;7.00;;;;;;;23.41;62.89;100272.06;5093975;28;20048;-64
2023/06/06 09:00:21;;;;;;;10.82;7.00;;;;;;;23.42;62.86;100271.03;5093622;28;20052;-63
2023/06/06 09:02:50;;;;;;;9.68;7.00;;;;;;;23.45;62.66;100278.00;5093951;28;20048;-64
2023/06/06 09:05:19;;;;;;;10.68;7.00;;;;;;;23.46;62.66;100273.41;5094241;28;20048;-65
2023/06/06 09:07:49;;;;;;;11.25;6.95;;;;;;;23.48;62.49;100263.19;5093997;28;20143;-65
2023/06/06 09:10:19;;;;;;;9.70;7.13;;;;;;;23.50;62.15;100263.88;5093919;28;20044;-63
2023/06/06 09:12:49;;;;;;;11.57;6.88;;;;;;;23.51;61.93;100268.28;5093969;28;20040;-65
2023/06/06 09:15:17;;;;;;;10.18;6.70;;;;;;;23.52;61.77;100270.81;5094012;28;20080;-65
2023/06/06 09:17:54;;;;;;;9.75;5.80;;;;;;;23.54;60.91;100270.66;5093827;28;20461;-65
2023/06/06 09:20:23;;;;;;;12.90;6.95;;;;;;;23.55;60.91;100267.78;5093739;28;20488;-65
2023/06/06 09:22:52;;;;;;;9.68;6.53;;;;;;;23.57;60.80;100264.88;5093435;28;20064;-65
2023/06/06 09:25:22;;;;;;;11.32;7.20;;;;;;;23.57;60.93;100263.00;5093170;28;20454;-66
2023/06/06 09:27:58;;;;;;;9.07;6.40;;;;;;;23.59;61.26;100265.56;5093570;28;20050;-65
2023/06/06 09:30:28;;;;;;;10.93;6.60;;;;;;;23.59;60.67;100269.13;5093842;28;20051;-65
2023/06/06 09:32:58;;;;;;;10.82;6.75;;;;;;;23.61;60.43;100271.69;5093589;28;20044;-64
2023/06/06 09:35:30;;;;;;;11.00;7.93;;;;;;;23.62;60.83;100266.06;5093567;28;20079;-64
2023/06/06 09:38:06;;;;;;;11.05;7.03;;;;;;;23.64;60.61;100263.16;5093298;28;20558;-65
2023/06/06 09:40:43;;;;;;;10.68;7.18;;;;;;;23.64;60.45;100261.31;5093491;28;20389;-65
2023/06/06 09:43:12;;;;;;;10.32;7.00;;;;;;;23.65;60.63;100271.16;5093518;28;20044;-65
2023/06/06 09:45:49;;;;;;;10.20;7.70;;;;;;;23.67;60.28;100262.81;5093483;28;20078;-65
2023/06/06 09:48:22;;;;;;;9.57;6.75;;;;;;;23.68;60.01;100269.97;5093285;28;20048;-65
2023/06/06 09:50:50;;;;;;;9.00;6.55;;;;;;;23.69;59.71;100274.38;5093395;28;20044;-65
2023/06/06 09:53:19;;;;;;;9.98;6.15;;;;;;;23.70;59.33;100266.03;5092996;28;20511;-64
2023/06/06 09:55:49;;;;;;;10.15;6.30;;;;;;;23.71;59.09;100264.16;5093332;28;20090;-64
2023/06/06 09:58:21;;;;;;;10.23;6.07;;;;;;;23.74;59.09;100263.81;5093174;28;20094;-64
2023/06/06 10:00:50;;;;;;;9.68;6.60;;;;;;;23.76;59.02;100258.19;5092812;28;20062;-66
2023/06/06 10:03:19;;;;;;;9.40;6.28;;;;;;;23.77;58.55;100259.88;5093066;28;20455;-64
2023/06/06 10:05:51;;;;;;;8.98;6.18;;;;;;;23.78;58.52;100251.53;5092881;28;20112;-64
2023/06/06 10:08:21;;;;;;;11.75;7.45;;;;;;;23.79;58.40;100249.66;5092459;28;20555;-65
2023/06/06 10:10:51;;;;;;;11.32;6.68;;;;;;;23.80;58.55;100249.47;5092889;28;20044;-65
2023/06/06 10:13:23;;;;;;;10.50;6.75;;;;;;;23.82;58.21;100249.28;5092681;28;20054;-65
2023/06/06 10:15:56;;;;;;;9.90;7.00;;;;;;;23.82;58.39;100241.97;5092669;28;20056;-65
2023/06/06 10:18:26;;;;;;;9.00;6.38;;;;;;;23.85;58.70;100240.78;5092568;28;20051;-65
2023/06/06 10:20:56;;;;;;;8.70;7.20;;;;;;;23.86;59.00;100242.47;5092730;28;20048;-65
2023/06/06 10:23:24;;;;;;;10.35;6.63;;;;;;;23.87;58.66;100238.72;5092771;28;20135;-64
2023/06/06 10:25:55;;;;;;;9.68;6.65;;;;;;;23.88;58.43;100226.78;5092666;28;20044;-65
2023/06/06 10:28:30;;;;;;;11.05;6.85;;;;;;;23.89;58.77;100237.50;5092418;28;20093;-66
2023/06/06 10:31:03;;;;;;;10.07;6.75;;;;;;;23.90;58.34;100231.03;5092579;28;20059;-66
2023/06/06 10:33:41;;;;;;;8.95;6.47;;;;;;;23.90;58.64;100233.75;5092312;28;20407;-66
2023/06/06 10:36:13;;;;;;;8.32;6.40;;;;;;;23.92;58.54;100239.03;5091828;28;20105;-65
2023/06/06 10:38:43;;;;;;;11.17;7.10;;;;;;;23.93;58.17;100229.81;5092023;28;20044;-65
2023/06/06 10:41:17;;;;;;;10.38;6.60;;;;;;;23.94;58.18;100224.22;5092162;28;20048;-65
2023/06/06 10:43:52;;;;;;;9.50;6.80;;;;;;;23.95;58.15;100225.91;5092155;28;20044;-65
2023/06/06 10:46:21;;;;;;;8.82;6.43;;;;;;;23.97;57.80;100223.00;5092135;28;20054;-65
2023/06/06 10:48:56;;;;;;;9.75;6.97;;;;;;;23.97;57.82;100223.84;5092061;28;20134;-64
2023/06/06 10:51:32;;;;;;;11.15;6.47;;;;;;;23.99;57.74;100227.22;5092018;28;20061;-65
2023/06/06 10:54:28;;;;;;;9.57;7.28;;;;;;;24.01;58.85;100231.66;5092088;28;20058;-65
2023/06/06 10:56:59;;;;;;;11.25;6.88;;;;;;;23.99;59.97;100229.94;5082699;28;20075;-64
2023/06/06 10:59:28;;;;;;;10.55;6.35;;;;;;;23.97;60.98;100223.84;5091795;28;20131;-65
2023/06/06 11:01:56;;;;;;;9.23;6.15;;;;;;;23.96;61.57;100221.31;5091776;28;20059;-64
2023/06/06 11:04:26;;;;;;;7.80;6.22;;;;;;;23.91;61.92;100220.97;5092043;28;20079;-64
2023/06/06 11:07:00;;;;;;;9.90;6.35;;;;;;;23.90;62.16;100222.00;5091860;28;20108;-65
2023/06/06 11:09:31;;;;;;;8.40;6.07;;;;;;;23.87;62.71;100223.22;5091480;28;20052;-64
2023/06/06 11:12:30;;;;;;;8.27;6.03;;;;;;;23.84;62.96;100229.03;5091724;28;20561;-65
2023/06/06 11:15:00;;;;;;;9.02;5.88;;;;;;;23.81;63.17;100229.38;5049276;28;20049;-65
2023/06/06 11:17:41;;;;;;;7.45;5.60;;;;;;;23.78;63.68;100234.34;5082954;28;20044;-64
2023/06/06 11:20:18;;;;;;;9.35;5.75;;;;;;;23.70;64.67;100238.78;5091563;28;20040;-64
2023/06/06 11:22:58;;;;;;;7.53;5.20;;;;;;;23.67;64.70;100244.59;5091425;28;20070;-64
2023/06/06 11:25:26;;;;;;;5.68;4.03;;;;;;;23.65;64.06;100253.97;5091707;28;20079;-64
2023/06/06 11:27:55;;;;;;;6.78;3.83;;;;;;;23.55;63.01;100239.69;5091271;28;20048;-64
2023/06/06 11:30:24;;;;;;;6.40;4.10;;;;;;;23.52;62.96;100242.75;5091461;28;20124;-65
2023/06/06 11:32:52;;;;;;;5.35;3.80;;;;;;;23.49;62.63;100234.94;5091291;28;20047;-64
2023/06/06 11:35:21;;;;;;;6.03;4.10;;;;;;;23.50;62.37;100244.81;5091218;28;20485;-64